sensor_id;sensor_type;location;lat;lon;timestamp;P1;durP1;ratioP1;P2;durP2;ratioP2
14817;SDS011;7500;57.698;11.986;2022-07-30T00:00:50;2.63;;;1.90;;
14817;SDS011;7500;57.698;11.986;2022-07-30T00:03:17;3.43;;;2.00;;
14817;SDS011;7500;57.698;11.986;2022-07-30T00:05:44;3.67;;;2.20;;
14817;SDS011;7500;57.698;11.986;2022-07-30T00:08:11;2.60;;;1.90;;
14817;SDS011;7500;57.698;11.986;2022-07-30T00:10:38;2.80;;;2.20;;
14817;SDS011;7500;57.698;11.986;2022-07-30T00:13:07;3.83;;;1.90;;
14817;SDS011;7500;57.698;11.986;2022-07-30T00:15:33;3.40;;;1.90;;
14817;SDS011;7500;57.698;11.986;2022-07-30T00:18:00;3.40;;;2.10;;
14817;SDS011;7500;57.698;11.986;2022-07-30T00:20:27;3.37;;;1.70;;
14817;SDS011;7500;57.698;11.986;2022-07-30T00:22:54;3.10;;;1.73;;
14817;SDS011;7500;57.698;11.986;2022-07-30T00:25:21;2.77;;;1.80;;
14817;SDS011;7500;57.698;11.986;2022-07-30T00:27:48;4.70;;;2.20;;
14817;SDS011;7500;57.698;11.986;2022-07-30T00:30:16;3.57;;;1.90;;
14817;SDS011;7500;57.698;11.986;2022-07-30T00:32:43;3.03;;;1.60;;
14817;SDS011;7500;57.698;11.986;2022-07-30T00:35:09;3.87;;;1.93;;
14817;SDS011;7500;57.698;11.986;2022-07-30T00:37:36;3.03;;;1.80;;
14817;SDS011;7500;57.698;11.986;2022-07-30T00:40:04;3.37;;;1.93;;
14817;SDS011;7500;57.698;11.986;2022-07-30T00:42:36;2.60;;;2.07;;
14817;SDS011;7500;57.698;11.986;2022-07-30T00:45:06;3.60;;;1.90;;
14817;SDS011;7500;57.698;11.986;2022-07-30T00:47:35;2.70;;;2.33;;
14817;SDS011;7500;57.698;11.986;2022-07-30T00:50:02;3.00;;;1.90;;
14817;SDS011;7500;57.698;11.986;2022-07-30T00:52:31;3.03;;;2.07;;
14817;SDS011;7500;57.698;11.986;2022-07-30T00:54:58;2.87;;;1.97;;
14817;SDS011;7500;57.698;11.986;2022-07-30T00:57:26;2.50;;;1.90;;
14817;SDS011;7500;57.698;11.986;2022-07-30T00:59:53;4.17;;;2.30;;
14817;SDS011;7500;57.698;11.986;2022-07-30T01:02:20;2.27;;;1.83;;
14817;SDS011;7500;57.698;11.986;2022-07-30T01:04:48;3.30;;;2.10;;
14817;SDS011;7500;57.698;11.986;2022-07-30T01:07:15;3.40;;;1.93;;
14817;SDS011;7500;57.698;11.986;2022-07-30T01:09:42;3.43;;;1.93;;
14817;SDS011;7500;57.698;11.986;2022-07-30T01:12:09;3.47;;;1.87;;
14817;SDS011;7500;57.698;11.986;2022-07-30T01:14:37;2.73;;;1.70;;
14817;SDS011;7500;57.698;11.986;2022-07-30T01:17:05;2.20;;;2.00;;
14817;SDS011;7500;57.698;11.986;2022-07-30T01:19:33;2.30;;;1.90;;
14817;SDS011;7500;57.698;11.986;2022-07-30T01:22:26;2.23;;;1.93;;
14817;SDS011;7500;57.698;11.986;2022-07-30T01:25:00;2.27;;;1.87;;
14817;SDS011;7500;57.698;11.986;2022-07-30T01:27:35;3.73;;;2.23;;
14817;SDS011;7500;57.698;11.986;2022-07-30T01:30:06;2.33;;;1.70;;
14817;SDS011;7500;57.698;11.986;2022-07-30T01:32:35;3.13;;;1.70;;
14817;SDS011;7500;57.698;11.986;2022-07-30T01:35:08;1.97;;;1.70;;
14817;SDS011;7500;57.698;11.986;2022-07-30T01:37:36;1.90;;;1.77;;
14817;SDS011;7500;57.698;11.986;2022-07-30T01:40:04;2.97;;;1.73;;
14817;SDS011;7500;57.698;11.986;2022-07-30T01:42:32;2.70;;;1.90;;
14817;SDS011;7500;57.698;11.986;2022-07-30T01:45:03;4.17;;;1.87;;
14817;SDS011;7500;57.698;11.986;2022-07-30T01:47:33;3.80;;;2.00;;
14817;SDS011;7500;57.698;11.986;2022-07-30T01:50:02;3.43;;;1.93;;
14817;SDS011;7500;57.698;11.986;2022-07-30T01:52:33;3.00;;;1.80;;
14817;SDS011;7500;57.698;11.986;2022-07-30T01:55:01;4.23;;;1.80;;
14817;SDS011;7500;57.698;11.986;2022-07-30T01:57:30;2.00;;;1.80;;
14817;SDS011;7500;57.698;11.986;2022-07-30T02:00:02;3.23;;;1.90;;
14817;SDS011;7500;57.698;11.986;2022-07-30T02:02:31;2.13;;;1.70;;
14817;SDS011;7500;57.698;11.986;2022-07-30T02:04:59;2.70;;;1.93;;
14817;SDS011;7500;57.698;11.986;2022-07-30T02:07:28;5.67;;;1.93;;
14817;SDS011;7500;57.698;11.986;2022-07-30T02:10:03;3.80;;;1.70;;
14817;SDS011;7500;57.698;11.986;2022-07-30T02:12:33;5.80;;;1.70;;
14817;SDS011;7500;57.698;11.986;2022-07-30T02:15:10;2.67;;;1.97;;
14817;SDS011;7500;57.698;11.986;2022-07-30T02:17:42;3.43;;;2.03;;
14817;SDS011;7500;57.698;11.986;2022-07-30T02:20:13;3.27;;;1.80;;
14817;SDS011;7500;57.698;11.986;2022-07-30T02:22:44;2.57;;;1.80;;
14817;SDS011;7500;57.698;11.986;2022-07-30T02:25:12;5.27;;;2.10;;
14817;SDS011;7500;57.698;11.986;2022-07-30T02:27:42;2.90;;;1.83;;
14817;SDS011;7500;57.698;11.986;2022-07-30T02:30:13;3.07;;;1.97;;
14817;SDS011;7500;57.698;11.986;2022-07-30T02:32:41;3.23;;;2.00;;
14817;SDS011;7500;57.698;11.986;2022-07-30T02:35:11;4.00;;;1.90;;
14817;SDS011;7500;57.698;11.986;2022-07-30T02:37:41;3.57;;;1.83;;
14817;SDS011;7500;57.698;11.986;2022-07-30T02:40:12;2.13;;;1.80;;
14817;SDS011;7500;57.698;11.986;2022-07-30T02:42:41;3.03;;;1.90;;
14817;SDS011;7500;57.698;11.986;2022-07-30T02:45:10;3.83;;;2.20;;
14817;SDS011;7500;57.698;11.986;2022-07-30T02:47:41;2.90;;;1.90;;
14817;SDS011;7500;57.698;11.986;2022-07-30T02:50:09;4.03;;;2.20;;
14817;SDS011;7500;57.698;11.986;2022-07-30T02:52:38;2.43;;;2.00;;
14817;SDS011;7500;57.698;11.986;2022-07-30T02:55:07;1.90;;;1.70;;
14817;SDS011;7500;57.698;11.986;2022-07-30T02:57:38;3.50;;;2.20;;
14817;SDS011;7500;57.698;11.986;2022-07-30T03:00:08;1.90;;;1.80;;
14817;SDS011;7500;57.698;11.986;2022-07-30T03:02:38;2.83;;;1.93;;
14817;SDS011;7500;57.698;11.986;2022-07-30T03:05:06;5.23;;;2.23;;
14817;SDS011;7500;57.698;11.986;2022-07-30T03:07:34;3.50;;;2.00;;
14817;SDS011;7500;57.698;11.986;2022-07-30T03:10:03;2.50;;;2.07;;
14817;SDS011;7500;57.698;11.986;2022-07-30T03:12:31;3.60;;;1.80;;
14817;SDS011;7500;57.698;11.986;2022-07-30T03:15:00;5.70;;;1.90;;
14817;SDS011;7500;57.698;11.986;2022-07-30T03:17:30;3.57;;;2.07;;
14817;SDS011;7500;57.698;11.986;2022-07-30T03:20:04;3.63;;;1.93;;
14817;SDS011;7500;57.698;11.986;2022-07-30T03:22:35;5.10;;;2.07;;
14817;SDS011;7500;57.698;11.986;2022-07-30T03:25:07;2.63;;;1.90;;
14817;SDS011;7500;57.698;11.986;2022-07-30T03:27:36;3.50;;;1.90;;
14817;SDS011;7500;57.698;11.986;2022-07-30T03:30:04;3.63;;;2.00;;
14817;SDS011;7500;57.698;11.986;2022-07-30T03:32:33;4.37;;;2.17;;
14817;SDS011;7500;57.698;11.986;2022-07-30T03:35:00;1.77;;;1.67;;
14817;SDS011;7500;57.698;11.986;2022-07-30T03:37:29;3.50;;;2.03;;
14817;SDS011;7500;57.698;11.986;2022-07-30T03:39:57;2.43;;;2.00;;
14817;SDS011;7500;57.698;11.986;2022-07-30T03:42:24;3.43;;;1.97;;
14817;SDS011;7500;57.698;11.986;2022-07-30T03:44:53;2.67;;;1.70;;
14817;SDS011;7500;57.698;11.986;2022-07-30T03:47:21;2.47;;;1.77;;
14817;SDS011;7500;57.698;11.986;2022-07-30T03:49:49;3.87;;;2.00;;
14817;SDS011;7500;57.698;11.986;2022-07-30T03:52:17;3.93;;;2.10;;
14817;SDS011;7500;57.698;11.986;2022-07-30T03:54:45;2.30;;;2.10;;
14817;SDS011;7500;57.698;11.986;2022-07-30T03:57:13;2.50;;;2.00;;
14817;SDS011;7500;57.698;11.986;2022-07-30T03:59:40;2.90;;;2.07;;
14817;SDS011;7500;57.698;11.986;2022-07-30T04:02:07;2.60;;;1.70;;
14817;SDS011;7500;57.698;11.986;2022-07-30T04:04:34;3.80;;;1.87;;
14817;SDS011;7500;57.698;11.986;2022-07-30T04:07:01;3.00;;;1.83;;
14817;SDS011;7500;57.698;11.986;2022-07-30T04:09:28;6.07;;;2.00;;
14817;SDS011;7500;57.698;11.986;2022-07-30T04:11:56;3.20;;;2.00;;
14817;SDS011;7500;57.698;11.986;2022-07-30T04:14:23;2.93;;;2.00;;
14817;SDS011;7500;57.698;11.986;2022-07-30T04:16:53;2.87;;;1.80;;
14817;SDS011;7500;57.698;11.986;2022-07-30T04:19:25;5.03;;;2.10;;
14817;SDS011;7500;57.698;11.986;2022-07-30T04:21:55;4.77;;;1.93;;
14817;SDS011;7500;57.698;11.986;2022-07-30T04:24:23;3.27;;;2.00;;
14817;SDS011;7500;57.698;11.986;2022-07-30T04:26:51;3.33;;;2.30;;
14817;SDS011;7500;57.698;11.986;2022-07-30T04:29:19;3.23;;;1.80;;
14817;SDS011;7500;57.698;11.986;2022-07-30T04:31:46;3.03;;;1.90;;
14817;SDS011;7500;57.698;11.986;2022-07-30T04:34:13;3.97;;;1.83;;
14817;SDS011;7500;57.698;11.986;2022-07-30T04:36:41;3.30;;;2.00;;
14817;SDS011;7500;57.698;11.986;2022-07-30T04:39:08;3.43;;;1.80;;
14817;SDS011;7500;57.698;11.986;2022-07-30T04:41:36;3.60;;;1.60;;
14817;SDS011;7500;57.698;11.986;2022-07-30T04:44:03;2.30;;;1.70;;
14817;SDS011;7500;57.698;11.986;2022-07-30T04:46:32;3.50;;;1.57;;
14817;SDS011;7500;57.698;11.986;2022-07-30T04:48:58;3.07;;;1.83;;
14817;SDS011;7500;57.698;11.986;2022-07-30T04:51:27;5.10;;;1.50;;
14817;SDS011;7500;57.698;11.986;2022-07-30T04:53:57;3.93;;;1.80;;
14817;SDS011;7500;57.698;11.986;2022-07-30T04:56:25;4.67;;;1.70;;
14817;SDS011;7500;57.698;11.986;2022-07-30T04:58:55;3.07;;;1.40;;
14817;SDS011;7500;57.698;11.986;2022-07-30T05:01:23;3.30;;;1.50;;
14817;SDS011;7500;57.698;11.986;2022-07-30T05:03:55;2.03;;;1.40;;
14817;SDS011;7500;57.698;11.986;2022-07-30T05:06:24;3.57;;;1.80;;
14817;SDS011;7500;57.698;11.986;2022-07-30T05:08:51;2.33;;;1.70;;
14817;SDS011;7500;57.698;11.986;2022-07-30T05:11:18;1.93;;;1.40;;
14817;SDS011;7500;57.698;11.986;2022-07-30T05:13:45;1.70;;;1.30;;
14817;SDS011;7500;57.698;11.986;2022-07-30T05:16:13;3.80;;;1.40;;
14817;SDS011;7500;57.698;11.986;2022-07-30T05:18:40;2.47;;;1.30;;
14817;SDS011;7500;57.698;11.986;2022-07-30T05:21:09;2.53;;;1.30;;
14817;SDS011;7500;57.698;11.986;2022-07-30T05:23:35;1.97;;;1.43;;
14817;SDS011;7500;57.698;11.986;2022-07-30T05:26:02;2.90;;;1.50;;
14817;SDS011;7500;57.698;11.986;2022-07-30T05:28:29;2.27;;;1.40;;
14817;SDS011;7500;57.698;11.986;2022-07-30T05:30:56;4.73;;;1.23;;
14817;SDS011;7500;57.698;11.986;2022-07-30T05:33:23;3.13;;;1.50;;
14817;SDS011;7500;57.698;11.986;2022-07-30T05:35:50;1.80;;;1.30;;
14817;SDS011;7500;57.698;11.986;2022-07-30T05:38:18;1.70;;;1.17;;
14817;SDS011;7500;57.698;11.986;2022-07-30T05:40:45;2.27;;;1.00;;
14817;SDS011;7500;57.698;11.986;2022-07-30T05:43:12;2.10;;;1.20;;
14817;SDS011;7500;57.698;11.986;2022-07-30T05:45:39;2.67;;;1.50;;
14817;SDS011;7500;57.698;11.986;2022-07-30T05:48:05;2.97;;;1.30;;
14817;SDS011;7500;57.698;11.986;2022-07-30T05:50:32;4.33;;;1.40;;
14817;SDS011;7500;57.698;11.986;2022-07-30T05:52:59;1.57;;;1.10;;
14817;SDS011;7500;57.698;11.986;2022-07-30T05:55:28;2.10;;;1.13;;
14817;SDS011;7500;57.698;11.986;2022-07-30T05:57:54;2.43;;;1.47;;
14817;SDS011;7500;57.698;11.986;2022-07-30T06:00:21;3.33;;;1.20;;
14817;SDS011;7500;57.698;11.986;2022-07-30T06:02:48;3.00;;;1.40;;
14817;SDS011;7500;57.698;11.986;2022-07-30T06:05:15;2.33;;;1.13;;
14817;SDS011;7500;57.698;11.986;2022-07-30T06:07:41;2.03;;;1.30;;
14817;SDS011;7500;57.698;11.986;2022-07-30T06:10:08;2.27;;;1.10;;
14817;SDS011;7500;57.698;11.986;2022-07-30T06:12:36;4.23;;;1.20;;
14817;SDS011;7500;57.698;11.986;2022-07-30T06:15:04;1.47;;;1.03;;
14817;SDS011;7500;57.698;11.986;2022-07-30T06:17:31;1.93;;;1.50;;
14817;SDS011;7500;57.698;11.986;2022-07-30T06:19:58;1.87;;;1.20;;
14817;SDS011;7500;57.698;11.986;2022-07-30T06:22:25;2.03;;;1.00;;
14817;SDS011;7500;57.698;11.986;2022-07-30T06:24:52;1.97;;;1.03;;
14817;SDS011;7500;57.698;11.986;2022-07-30T06:27:19;1.53;;;1.10;;
14817;SDS011;7500;57.698;11.986;2022-07-30T06:29:47;1.77;;;1.10;;
14817;SDS011;7500;57.698;11.986;2022-07-30T06:32:14;1.30;;;1.13;;
14817;SDS011;7500;57.698;11.986;2022-07-30T06:34:41;1.27;;;1.10;;
14817;SDS011;7500;57.698;11.986;2022-07-30T06:37:08;1.33;;;0.90;;
14817;SDS011;7500;57.698;11.986;2022-07-30T06:39:35;1.77;;;1.10;;
14817;SDS011;7500;57.698;11.986;2022-07-30T06:42:02;2.77;;;1.10;;
14817;SDS011;7500;57.698;11.986;2022-07-30T06:44:29;2.50;;;1.30;;
14817;SDS011;7500;57.698;11.986;2022-07-30T06:46:57;2.17;;;1.13;;
14817;SDS011;7500;57.698;11.986;2022-07-30T06:49:24;2.13;;;1.10;;
14817;SDS011;7500;57.698;11.986;2022-07-30T06:51:51;1.07;;;0.90;;
14817;SDS011;7500;57.698;11.986;2022-07-30T06:54:18;2.00;;;1.20;;
14817;SDS011;7500;57.698;11.986;2022-07-30T06:56:45;3.77;;;1.53;;
14817;SDS011;7500;57.698;11.986;2022-07-30T06:59:11;2.50;;;1.10;;
14817;SDS011;7500;57.698;11.986;2022-07-30T07:01:38;2.23;;;0.90;;
14817;SDS011;7500;57.698;11.986;2022-07-30T07:04:06;1.10;;;0.80;;
14817;SDS011;7500;57.698;11.986;2022-07-30T07:06:33;0.80;;;0.80;;
14817;SDS011;7500;57.698;11.986;2022-07-30T07:09:00;2.03;;;1.10;;
14817;SDS011;7500;57.698;11.986;2022-07-30T07:11:27;1.67;;;1.30;;
14817;SDS011;7500;57.698;11.986;2022-07-30T07:13:54;0.87;;;0.83;;
14817;SDS011;7500;57.698;11.986;2022-07-30T07:16:21;1.57;;;0.83;;
14817;SDS011;7500;57.698;11.986;2022-07-30T07:18:49;1.40;;;1.10;;
14817;SDS011;7500;57.698;11.986;2022-07-30T07:21:17;1.83;;;0.80;;
14817;SDS011;7500;57.698;11.986;2022-07-30T07:23:44;1.57;;;0.83;;
14817;SDS011;7500;57.698;11.986;2022-07-30T07:26:12;2.37;;;1.00;;
14817;SDS011;7500;57.698;11.986;2022-07-30T07:28:39;2.60;;;1.20;;
14817;SDS011;7500;57.698;11.986;2022-07-30T07:31:07;1.43;;;0.80;;
14817;SDS011;7500;57.698;11.986;2022-07-30T07:33:34;3.00;;;1.27;;
14817;SDS011;7500;57.698;11.986;2022-07-30T07:36:01;2.83;;;1.27;;
14817;SDS011;7500;57.698;11.986;2022-07-30T07:38:29;1.43;;;1.00;;
14817;SDS011;7500;57.698;11.986;2022-07-30T07:40:56;1.60;;;1.20;;
14817;SDS011;7500;57.698;11.986;2022-07-30T07:43:23;0.90;;;0.80;;
14817;SDS011;7500;57.698;11.986;2022-07-30T07:45:50;1.57;;;1.00;;
14817;SDS011;7500;57.698;11.986;2022-07-30T07:48:17;1.20;;;1.10;;
14817;SDS011;7500;57.698;11.986;2022-07-30T07:50:44;1.20;;;1.10;;
14817;SDS011;7500;57.698;11.986;2022-07-30T07:53:11;1.20;;;1.10;;
14817;SDS011;7500;57.698;11.986;2022-07-30T07:55:39;2.80;;;1.07;;
14817;SDS011;7500;57.698;11.986;2022-07-30T07:58:06;1.90;;;1.10;;
14817;SDS011;7500;57.698;11.986;2022-07-30T08:00:35;2.37;;;1.20;;
14817;SDS011;7500;57.698;11.986;2022-07-30T08:03:02;1.70;;;1.17;;
14817;SDS011;7500;57.698;11.986;2022-07-30T08:05:29;1.77;;;1.17;;
14817;SDS011;7500;57.698;11.986;2022-07-30T08:07:56;1.80;;;1.20;;
14817;SDS011;7500;57.698;11.986;2022-07-30T08:10:23;4.33;;;1.10;;
14817;SDS011;7500;57.698;11.986;2022-07-30T08:12:52;2.80;;;1.30;;
14817;SDS011;7500;57.698;11.986;2022-07-30T08:15:19;2.00;;;1.20;;
14817;SDS011;7500;57.698;11.986;2022-07-30T08:17:46;4.37;;;1.37;;
14817;SDS011;7500;57.698;11.986;2022-07-30T08:20:13;2.73;;;1.27;;
14817;SDS011;7500;57.698;11.986;2022-07-30T08:22:41;3.53;;;1.40;;
14817;SDS011;7500;57.698;11.986;2022-07-30T08:25:08;2.63;;;1.40;;
14817;SDS011;7500;57.698;11.986;2022-07-30T08:27:35;2.53;;;1.30;;
14817;SDS011;7500;57.698;11.986;2022-07-30T08:30:04;3.40;;;1.30;;
14817;SDS011;7500;57.698;11.986;2022-07-30T08:32:32;4.80;;;1.40;;
14817;SDS011;7500;57.698;11.986;2022-07-30T08:34:59;2.87;;;1.37;;
14817;SDS011;7500;57.698;11.986;2022-07-30T08:37:26;2.87;;;1.40;;
14817;SDS011;7500;57.698;11.986;2022-07-30T08:39:53;3.77;;;1.50;;
14817;SDS011;7500;57.698;11.986;2022-07-30T08:42:20;2.20;;;1.10;;
14817;SDS011;7500;57.698;11.986;2022-07-30T08:44:47;2.53;;;1.10;;
14817;SDS011;7500;57.698;11.986;2022-07-30T08:47:17;5.13;;;1.40;;
14817;SDS011;7500;57.698;11.986;2022-07-30T08:49:48;3.77;;;1.60;;
14817;SDS011;7500;57.698;11.986;2022-07-30T08:52:16;1.90;;;1.30;;
14817;SDS011;7500;57.698;11.986;2022-07-30T08:54:43;1.60;;;1.30;;
14817;SDS011;7500;57.698;11.986;2022-07-30T08:57:10;1.77;;;1.30;;
14817;SDS011;7500;57.698;11.986;2022-07-30T08:59:39;2.90;;;1.53;;
14817;SDS011;7500;57.698;11.986;2022-07-30T09:02:06;1.93;;;1.30;;
14817;SDS011;7500;57.698;11.986;2022-07-30T09:04:34;1.97;;;1.37;;
14817;SDS011;7500;57.698;11.986;2022-07-30T09:07:01;2.43;;;1.50;;
14817;SDS011;7500;57.698;11.986;2022-07-30T09:09:28;2.37;;;1.60;;
14817;SDS011;7500;57.698;11.986;2022-07-30T09:11:55;2.43;;;1.53;;
14817;SDS011;7500;57.698;11.986;2022-07-30T09:14:22;5.50;;;1.40;;
14817;SDS011;7500;57.698;11.986;2022-07-30T09:16:52;1.70;;;1.30;;
14817;SDS011;7500;57.698;11.986;2022-07-30T09:19:22;2.70;;;1.37;;
14817;SDS011;7500;57.698;11.986;2022-07-30T09:21:57;2.43;;;1.50;;
14817;SDS011;7500;57.698;11.986;2022-07-30T09:24:24;2.20;;;1.40;;
14817;SDS011;7500;57.698;11.986;2022-07-30T09:26:52;1.97;;;1.30;;
14817;SDS011;7500;57.698;11.986;2022-07-30T09:29:22;2.50;;;1.37;;
14817;SDS011;7500;57.698;11.986;2022-07-30T09:31:53;1.27;;;1.17;;
14817;SDS011;7500;57.698;11.986;2022-07-30T09:34:25;4.70;;;1.50;;
14817;SDS011;7500;57.698;11.986;2022-07-30T09:36:53;4.50;;;1.63;;
14817;SDS011;7500;57.698;11.986;2022-07-30T09:39:29;3.27;;;1.60;;
14817;SDS011;7500;57.698;11.986;2022-07-30T09:41:57;2.90;;;1.47;;
14817;SDS011;7500;57.698;11.986;2022-07-30T09:44:24;4.20;;;1.90;;
14817;SDS011;7500;57.698;11.986;2022-07-30T09:46:52;2.23;;;1.73;;
14817;SDS011;7500;57.698;11.986;2022-07-30T09:49:19;3.20;;;2.10;;
14817;SDS011;7500;57.698;11.986;2022-07-30T09:51:48;3.80;;;2.07;;
14817;SDS011;7500;57.698;11.986;2022-07-30T09:54:15;3.37;;;2.23;;
14817;SDS011;7500;57.698;11.986;2022-07-30T09:56:44;3.30;;;2.40;;
14817;SDS011;7500;57.698;11.986;2022-07-30T10:01:56;2.83;;;2.13;;
14817;SDS011;7500;57.698;11.986;2022-07-30T10:04:24;4.63;;;2.10;;
14817;SDS011;7500;57.698;11.986;2022-07-30T10:06:51;3.03;;;1.83;;
14817;SDS011;7500;57.698;11.986;2022-07-30T10:09:28;2.47;;;1.80;;
14817;SDS011;7500;57.698;11.986;2022-07-30T10:11:57;2.40;;;1.90;;
14817;SDS011;7500;57.698;11.986;2022-07-30T10:14:28;2.17;;;1.77;;
14817;SDS011;7500;57.698;11.986;2022-07-30T10:16:57;4.27;;;1.73;;
14817;SDS011;7500;57.698;11.986;2022-07-30T10:19:24;3.80;;;1.30;;
14817;SDS011;7500;57.698;11.986;2022-07-30T10:21:51;3.00;;;1.50;;
14817;SDS011;7500;57.698;11.986;2022-07-30T10:24:22;1.93;;;1.27;;
14817;SDS011;7500;57.698;11.986;2022-07-30T10:26:50;1.67;;;1.40;;
14817;SDS011;7500;57.698;11.986;2022-07-30T10:29:19;2.87;;;1.40;;
14817;SDS011;7500;57.698;11.986;2022-07-30T10:31:48;3.50;;;1.80;;
14817;SDS011;7500;57.698;11.986;2022-07-30T10:34:16;1.33;;;1.03;;
14817;SDS011;7500;57.698;11.986;2022-07-30T10:36:46;3.73;;;1.53;;
14817;SDS011;7500;57.698;11.986;2022-07-30T10:39:16;1.77;;;1.37;;
14817;SDS011;7500;57.698;11.986;2022-07-30T10:41:47;1.77;;;1.30;;
14817;SDS011;7500;57.698;11.986;2022-07-30T10:44:32;1.43;;;1.30;;
14817;SDS011;7500;57.698;11.986;2022-07-30T10:47:11;1.97;;;1.60;;
14817;SDS011;7500;57.698;11.986;2022-07-30T10:49:52;2.10;;;0.90;;
14817;SDS011;7500;57.698;11.986;2022-07-30T10:55:15;2.27;;;1.30;;
14817;SDS011;7500;57.698;11.986;2022-07-30T10:58:03;1.60;;;1.00;;
14817;SDS011;7500;57.698;11.986;2022-07-30T11:00:32;2.23;;;1.10;;
14817;SDS011;7500;57.698;11.986;2022-07-30T11:03:14;2.80;;;1.20;;
14817;SDS011;7500;57.698;11.986;2022-07-30T11:05:43;1.67;;;1.00;;
14817;SDS011;7500;57.698;11.986;2022-07-30T11:08:30;3.97;;;1.77;;
14817;SDS011;7500;57.698;11.986;2022-07-30T11:11:01;1.50;;;1.13;;
14817;SDS011;7500;57.698;11.986;2022-07-30T11:13:47;2.93;;;1.20;;
14817;SDS011;7500;57.698;11.986;2022-07-30T11:16:17;1.73;;;0.80;;
14817;SDS011;7500;57.698;11.986;2022-07-30T11:21:32;1.00;;;0.90;;
14817;SDS011;7500;57.698;11.986;2022-07-30T11:24:00;3.40;;;1.47;;
14817;SDS011;7500;57.698;11.986;2022-07-30T11:26:46;2.50;;;1.47;;
14817;SDS011;7500;57.698;11.986;2022-07-30T11:29:32;2.03;;;0.93;;
14817;SDS011;7500;57.698;11.986;2022-07-30T11:35:13;3.03;;;1.50;;
14817;SDS011;7500;57.698;11.986;2022-07-30T11:37:55;1.27;;;1.17;;
14817;SDS011;7500;57.698;11.986;2022-07-30T11:40:23;1.67;;;1.00;;
14817;SDS011;7500;57.698;11.986;2022-07-30T11:42:51;4.50;;;1.00;;
14817;SDS011;7500;57.698;11.986;2022-07-30T11:45:38;1.10;;;1.00;;
14817;SDS011;7500;57.698;11.986;2022-07-30T11:48:09;1.63;;;1.00;;
14817;SDS011;7500;57.698;11.986;2022-07-30T11:50:38;1.40;;;0.90;;
14817;SDS011;7500;57.698;11.986;2022-07-30T11:53:07;1.20;;;0.87;;
14817;SDS011;7500;57.698;11.986;2022-07-30T11:55:35;1.80;;;1.00;;
14817;SDS011;7500;57.698;11.986;2022-07-30T11:58:04;4.03;;;1.20;;
14817;SDS011;7500;57.698;11.986;2022-07-30T12:00:33;1.80;;;1.40;;
14817;SDS011;7500;57.698;11.986;2022-07-30T12:03:06;1.17;;;0.88;;
14817;SDS011;7500;57.698;11.986;2022-07-30T12:05:35;1.58;;;0.90;;
14817;SDS011;7500;57.698;11.986;2022-07-30T12:08:02;1.90;;;0.88;;
14817;SDS011;7500;57.698;11.986;2022-07-30T12:10:30;1.95;;;0.90;;
14817;SDS011;7500;57.698;11.986;2022-07-30T12:13:06;1.67;;;1.10;;
14817;SDS011;7500;57.698;11.986;2022-07-30T12:15:35;2.83;;;1.10;;
14817;SDS011;7500;57.698;11.986;2022-07-30T12:18:03;2.35;;;0.98;;
14817;SDS011;7500;57.698;11.986;2022-07-30T12:20:33;1.37;;;1.00;;
14817;SDS011;7500;57.698;11.986;2022-07-30T12:23:00;1.50;;;1.10;;
14817;SDS011;7500;57.698;11.986;2022-07-30T12:25:27;1.10;;;0.90;;
14817;SDS011;7500;57.698;11.986;2022-07-30T12:27:54;1.60;;;1.00;;
14817;SDS011;7500;57.698;11.986;2022-07-30T12:30:21;2.67;;;1.27;;
14817;SDS011;7500;57.698;11.986;2022-07-30T12:32:48;1.43;;;1.10;;
14817;SDS011;7500;57.698;11.986;2022-07-30T12:35:15;1.00;;;0.87;;
14817;SDS011;7500;57.698;11.986;2022-07-30T12:40:29;2.85;;;1.40;;
14817;SDS011;7500;57.698;11.986;2022-07-30T12:42:56;1.52;;;0.90;;
14817;SDS011;7500;57.698;11.986;2022-07-30T12:45:26;2.72;;;1.10;;
14817;SDS011;7500;57.698;11.986;2022-07-30T12:47:54;2.03;;;1.40;;
14817;SDS011;7500;57.698;11.986;2022-07-30T12:50:22;1.40;;;1.30;;
14817;SDS011;7500;57.698;11.986;2022-07-30T12:52:50;1.53;;;1.20;;
14817;SDS011;7500;57.698;11.986;2022-07-30T12:55:28;1.10;;;1.00;;
14817;SDS011;7500;57.698;11.986;2022-07-30T12:57:57;1.50;;;1.40;;
14817;SDS011;7500;57.698;11.986;2022-07-30T13:00:26;1.00;;;1.00;;
14817;SDS011;7500;57.698;11.986;2022-07-30T13:02:55;1.77;;;1.33;;
14817;SDS011;7500;57.698;11.986;2022-07-30T13:05:44;1.00;;;1.00;;
14817;SDS011;7500;57.698;11.986;2022-07-30T13:08:12;1.20;;;1.10;;
14817;SDS011;7500;57.698;11.986;2022-07-30T13:10:53;1.20;;;1.10;;
14817;SDS011;7500;57.698;11.986;2022-07-30T13:13:21;2.27;;;1.63;;
14817;SDS011;7500;57.698;11.986;2022-07-30T13:15:57;2.27;;;2.07;;
14817;SDS011;7500;57.698;11.986;2022-07-30T13:18:26;1.50;;;1.40;;
14817;SDS011;7500;57.698;11.986;2022-07-30T13:20:53;1.40;;;1.30;;
14817;SDS011;7500;57.698;11.986;2022-07-30T13:23:20;1.40;;;1.27;;
14817;SDS011;7500;57.698;11.986;2022-07-30T13:25:47;2.40;;;1.30;;
14817;SDS011;7500;57.698;11.986;2022-07-30T13:28:15;2.97;;;1.17;;
14817;SDS011;7500;57.698;11.986;2022-07-30T13:30:43;2.53;;;1.50;;
14817;SDS011;7500;57.698;11.986;2022-07-30T13:33:10;1.80;;;1.30;;
14817;SDS011;7500;57.698;11.986;2022-07-30T13:35:38;2.10;;;1.90;;
14817;SDS011;7500;57.698;11.986;2022-07-30T13:38:05;2.27;;;1.20;;
14817;SDS011;7500;57.698;11.986;2022-07-30T13:40:32;1.30;;;1.20;;
14817;SDS011;7500;57.698;11.986;2022-07-30T13:42:59;1.93;;;1.40;;
14817;SDS011;7500;57.698;11.986;2022-07-30T13:45:28;1.20;;;1.10;;
14817;SDS011;7500;57.698;11.986;2022-07-30T13:47:55;1.27;;;1.10;;
14817;SDS011;7500;57.698;11.986;2022-07-30T13:50:22;1.80;;;1.30;;
14817;SDS011;7500;57.698;11.986;2022-07-30T13:52:49;2.10;;;1.40;;
14817;SDS011;7500;57.698;11.986;2022-07-30T13:55:16;1.93;;;1.20;;
14817;SDS011;7500;57.698;11.986;2022-07-30T13:57:43;1.97;;;1.10;;
14817;SDS011;7500;57.698;11.986;2022-07-30T14:00:11;1.73;;;1.13;;
14817;SDS011;7500;57.698;11.986;2022-07-30T14:02:40;2.13;;;1.00;;
14817;SDS011;7500;57.698;11.986;2022-07-30T14:05:07;1.40;;;1.30;;
14817;SDS011;7500;57.698;11.986;2022-07-30T14:07:34;1.50;;;1.40;;
14817;SDS011;7500;57.698;11.986;2022-07-30T14:10:02;3.53;;;2.20;;
14817;SDS011;7500;57.698;11.986;2022-07-30T14:12:30;2.33;;;1.73;;
14817;SDS011;7500;57.698;11.986;2022-07-30T14:14:57;1.30;;;1.20;;
14817;SDS011;7500;57.698;11.986;2022-07-30T14:17:24;2.10;;;1.53;;
14817;SDS011;7500;57.698;11.986;2022-07-30T14:19:52;1.40;;;1.30;;
14817;SDS011;7500;57.698;11.986;2022-07-30T14:22:20;1.43;;;1.30;;
14817;SDS011;7500;57.698;11.986;2022-07-30T14:24:47;2.27;;;1.60;;
14817;SDS011;7500;57.698;11.986;2022-07-30T14:27:14;1.30;;;1.20;;
14817;SDS011;7500;57.698;11.986;2022-07-30T14:29:43;3.33;;;1.20;;
14817;SDS011;7500;57.698;11.986;2022-07-30T14:32:10;1.57;;;1.10;;
14817;SDS011;7500;57.698;11.986;2022-07-30T14:34:37;1.37;;;1.27;;
14817;SDS011;7500;57.698;11.986;2022-07-30T14:37:05;1.73;;;1.30;;
14817;SDS011;7500;57.698;11.986;2022-07-30T14:39:32;3.33;;;1.47;;
14817;SDS011;7500;57.698;11.986;2022-07-30T14:41:59;2.10;;;1.80;;
14817;SDS011;7500;57.698;11.986;2022-07-30T14:44:26;1.57;;;1.47;;
14817;SDS011;7500;57.698;11.986;2022-07-30T14:46:53;2.53;;;1.70;;
14817;SDS011;7500;57.698;11.986;2022-07-30T14:49:20;1.90;;;1.70;;
14817;SDS011;7500;57.698;11.986;2022-07-30T14:51:46;4.73;;;2.90;;
14817;SDS011;7500;57.698;11.986;2022-07-30T14:54:15;2.00;;;1.53;;
14817;SDS011;7500;57.698;11.986;2022-07-30T14:56:41;3.07;;;2.00;;
14817;SDS011;7500;57.698;11.986;2022-07-30T14:59:08;2.37;;;1.83;;
14817;SDS011;7500;57.698;11.986;2022-07-30T15:01:35;2.23;;;1.67;;
14817;SDS011;7500;57.698;11.986;2022-07-30T15:04:02;2.90;;;1.90;;
14817;SDS011;7500;57.698;11.986;2022-07-30T15:06:33;2.00;;;1.40;;
14817;SDS011;7500;57.698;11.986;2022-07-30T15:09:00;3.77;;;1.63;;
14817;SDS011;7500;57.698;11.986;2022-07-30T15:11:28;2.13;;;1.77;;